RYR68UK LKPR-LZKZ
Flight info
| Callsign | RYR68UK |
|---|---|
| Flight time | 0h 59m |
| Altitude | 29000 |
| Route | VOZ DCT UPLAV DCT MAKAL DCT TAKOS |
| Aircraft | B738/M-SDE2E3FGHIRWXY/LB1 |
Departure
| Time | 2026-04-26 18:40 |
|---|---|
| Airport | Václav Havel Airport Prague (LKPR) |
Arrival
| Time | 2026-04-26 19:39 |
|---|---|
| Airport | Košice International Airport (LZKZ) |
| Time | Latitude | Longitude | Altitude | Speed | Heading |
|---|---|---|---|---|---|
| 2026-04-26 18:18 | 50.10806 | 14.25870 | 1172 ft | 0 kts | 304° |
| 2026-04-26 18:33 | 50.10811 | 14.25859 | 1171 ft | 5 kts | 304° |
| 2026-04-26 18:34 | 50.10832 | 14.25784 | 1172 ft | 9 kts | 255° |
| 2026-04-26 18:34 | 50.10780 | 14.25716 | 1170 ft | 11 kts | 214° |
| 2026-04-26 18:34 | 50.10709 | 14.25644 | 1174 ft | 12 kts | 213° |
| 2026-04-26 18:34 | 50.10636 | 14.25663 | 1177 ft | 13 kts | 132° |
| 2026-04-26 18:35 | 50.10588 | 14.25780 | 1181 ft | 14 kts | 122° |
| 2026-04-26 18:35 | 50.10529 | 14.25918 | 1182 ft | 17 kts | 125° |
| 2026-04-26 18:35 | 50.10457 | 14.26072 | 1185 ft | 18 kts | 126° |
| 2026-04-26 18:35 | 50.10394 | 14.26198 | 1187 ft | 15 kts | 125° |
| 2026-04-26 18:36 | 50.10330 | 14.26334 | 1190 ft | 16 kts | 127° |
| 2026-04-26 18:36 | 50.10257 | 14.26482 | 1193 ft | 17 kts | 127° |
| 2026-04-26 18:36 | 50.10182 | 14.26640 | 1196 ft | 19 kts | 127° |
| 2026-04-26 18:36 | 50.10101 | 14.26808 | 1199 ft | 19 kts | 127° |
| 2026-04-26 18:37 | 50.10024 | 14.26968 | 1202 ft | 18 kts | 127° |
| 2026-04-26 18:37 | 50.09949 | 14.27122 | 1205 ft | 18 kts | 127° |
| 2026-04-26 18:37 | 50.09863 | 14.27298 | 1203 ft | 22 kts | 130° |
| 2026-04-26 18:37 | 50.09751 | 14.27478 | 1205 ft | 24 kts | 136° |
| 2026-04-26 18:38 | 50.09635 | 14.27652 | 1207 ft | 23 kts | 136° |
| 2026-04-26 18:38 | 50.09520 | 14.27824 | 1211 ft | 23 kts | 135° |
| 2026-04-26 18:38 | 50.09413 | 14.27992 | 1217 ft | 21 kts | 132° |
| 2026-04-26 18:38 | 50.09314 | 14.28153 | 1222 ft | 20 kts | 136° |
| 2026-04-26 18:39 | 50.09210 | 14.28285 | 1227 ft | 19 kts | 161° |
| 2026-04-26 18:39 | 50.09099 | 14.28196 | 1233 ft | 20 kts | 235° |
| 2026-04-26 18:39 | 50.09136 | 14.27991 | 1226 ft | 33 kts | 305° |
| 2026-04-26 18:39 | 50.09454 | 14.27327 | 1216 ft | 118 kts | 307° |
| 2026-04-26 18:40 | 50.10070 | 14.26012 | 1344 ft | 172 kts | 306° |
| 2026-04-26 18:40 | 50.10778 | 14.24442 | 2169 ft | 186 kts | 309° |
| 2026-04-26 18:40 | 50.11586 | 14.22781 | 3083 ft | 195 kts | 310° |
| 2026-04-26 18:40 | 50.12420 | 14.21088 | 3936 ft | 198 kts | 309° |
| 2026-04-26 18:41 | 50.13264 | 14.19364 | 4666 ft | 206 kts | 308° |
| 2026-04-26 18:41 | 50.14188 | 14.17468 | 4906 ft | 233 kts | 307° |
| 2026-04-26 18:41 | 50.15221 | 14.15340 | 5212 ft | 257 kts | 307° |
| 2026-04-26 18:41 | 50.16308 | 14.13091 | 6084 ft | 260 kts | 307° |
| 2026-04-26 18:42 | 50.17385 | 14.10853 | 7183 ft | 257 kts | 305° |
| 2026-04-26 18:42 | 50.18106 | 14.08293 | 8001 ft | 265 kts | 279° |
| 2026-04-26 18:42 | 50.17954 | 14.05412 | 8911 ft | 272 kts | 253° |
| 2026-04-26 18:42 | 50.16975 | 14.02843 | 9783 ft | 283 kts | 228° |
| 2026-04-26 18:43 | 50.15440 | 14.00858 | 10596 ft | 291 kts | 220° |
| 2026-04-26 18:43 | 50.13745 | 13.99048 | 10867 ft | 319 kts | 209° |
| 2026-04-26 18:43 | 50.11495 | 13.98304 | 11212 ft | 345 kts | 178° |
| 2026-04-26 18:43 | 50.09189 | 13.99293 | 11922 ft | 355 kts | 158° |
| 2026-04-26 18:44 | 50.06930 | 14.00897 | 12729 ft | 360 kts | 156° |
| 2026-04-26 18:44 | 50.04650 | 14.02573 | 13506 ft | 365 kts | 156° |
| 2026-04-26 18:44 | 50.02336 | 14.04263 | 14250 ft | 370 kts | 156° |
| 2026-04-26 18:44 | 49.99988 | 14.05948 | 14970 ft | 373 kts | 157° |
| 2026-04-26 18:45 | 49.97578 | 14.07649 | 15717 ft | 377 kts | 158° |
| 2026-04-26 18:45 | 49.95209 | 14.09305 | 16441 ft | 380 kts | 158° |
| 2026-04-26 18:45 | 49.92786 | 14.10990 | 17155 ft | 384 kts | 158° |
| 2026-04-26 18:45 | 49.90334 | 14.12690 | 17877 ft | 388 kts | 158° |
| 2026-04-26 18:46 | 49.87857 | 14.14405 | 18578 ft | 392 kts | 158° |
| 2026-04-26 18:46 | 49.85484 | 14.16529 | 19177 ft | 400 kts | 141° |
| 2026-04-26 18:46 | 49.83635 | 14.19766 | 19833 ft | 404 kts | 128° |
| 2026-04-26 18:46 | 49.81948 | 14.23264 | 20444 ft | 407 kts | 127° |
| 2026-04-26 18:47 | 49.80262 | 14.26814 | 21053 ft | 411 kts | 127° |
| 2026-04-26 18:47 | 49.78557 | 14.30385 | 21673 ft | 413 kts | 127° |
| 2026-04-26 18:47 | 49.76831 | 14.33962 | 22295 ft | 416 kts | 128° |
| 2026-04-26 18:47 | 49.75085 | 14.37548 | 22875 ft | 419 kts | 128° |
| 2026-04-26 18:48 | 49.73330 | 14.41129 | 23631 ft | 417 kts | 128° |
| 2026-04-26 18:48 | 49.71574 | 14.44702 | 24195 ft | 419 kts | 129° |
| 2026-04-26 18:48 | 49.69798 | 14.48309 | 24587 ft | 424 kts | 129° |
| 2026-04-26 18:48 | 49.68001 | 14.51954 | 24991 ft | 429 kts | 129° |
| 2026-04-26 18:49 | 49.66204 | 14.55659 | 25427 ft | 433 kts | 126° |
| 2026-04-26 18:49 | 49.64525 | 14.59570 | 25726 ft | 441 kts | 123° |
| 2026-04-26 18:49 | 49.62904 | 14.63620 | 26123 ft | 444 kts | 122° |
| 2026-04-26 18:49 | 49.61308 | 14.67656 | 26590 ft | 446 kts | 122° |
| 2026-04-26 18:50 | 49.59680 | 14.71725 | 27126 ft | 446 kts | 123° |
| 2026-04-26 18:50 | 49.58035 | 14.75773 | 27712 ft | 445 kts | 123° |
| 2026-04-26 18:50 | 49.56384 | 14.79791 | 28288 ft | 444 kts | 123° |
| 2026-04-26 18:50 | 49.54724 | 14.83812 | 28793 ft | 444 kts | 124° |
| 2026-04-26 18:51 | 49.53287 | 14.88023 | 29215 ft | 448 kts | 109° |
| 2026-04-26 18:51 | 49.52676 | 14.92721 | 29281 ft | 448 kts | 95° |
| 2026-04-26 18:51 | 49.52094 | 15.02149 | 29277 ft | 448 kts | 94° |
| 2026-04-26 18:52 | 49.51515 | 15.11698 | 29270 ft | 448 kts | 95° |
| 2026-04-26 18:52 | 49.50883 | 15.21227 | 29275 ft | 447 kts | 95° |
| 2026-04-26 18:53 | 49.50217 | 15.30749 | 29271 ft | 447 kts | 95° |
| 2026-04-26 18:53 | 49.49541 | 15.40211 | 29278 ft | 448 kts | 95° |
| 2026-04-26 18:54 | 49.48852 | 15.49747 | 29283 ft | 450 kts | 95° |
| 2026-04-26 18:54 | 49.48153 | 15.59319 | 29273 ft | 451 kts | 95° |
| 2026-04-26 18:55 | 49.47444 | 15.68931 | 29278 ft | 452 kts | 95° |
| 2026-04-26 18:55 | 49.46726 | 15.78547 | 29269 ft | 453 kts | 95° |
| 2026-04-26 18:56 | 49.46000 | 15.88171 | 29255 ft | 453 kts | 95° |
| 2026-04-26 18:56 | 49.45265 | 15.97794 | 29268 ft | 453 kts | 95° |
| 2026-04-26 18:57 | 49.44657 | 16.05674 | 29263 ft | 453 kts | 95° |
| 2026-04-26 18:57 | 49.43781 | 16.16909 | 29258 ft | 453 kts | 95° |
| 2026-04-26 18:58 | 49.43029 | 16.26450 | 29269 ft | 453 kts | 96° |
| 2026-04-26 18:58 | 49.42263 | 16.36047 | 29262 ft | 453 kts | 95° |
| 2026-04-26 18:59 | 49.41490 | 16.45649 | 29262 ft | 453 kts | 95° |
| 2026-04-26 18:59 | 49.40707 | 16.55257 | 29268 ft | 453 kts | 96° |
| 2026-04-26 19:00 | 49.39917 | 16.64864 | 29262 ft | 454 kts | 96° |
| 2026-04-26 19:00 | 49.39116 | 16.74489 | 29268 ft | 454 kts | 95° |
| 2026-04-26 19:01 | 49.38307 | 16.84126 | 29274 ft | 455 kts | 95° |
| 2026-04-26 19:01 | 49.37488 | 16.93770 | 29260 ft | 456 kts | 95° |
| 2026-04-26 19:02 | 49.36668 | 17.03320 | 29274 ft | 456 kts | 95° |
| 2026-04-26 19:02 | 49.35974 | 17.11347 | 29277 ft | 457 kts | 96° |
| 2026-04-26 19:03 | 49.34994 | 17.22577 | 29270 ft | 457 kts | 95° |
| 2026-04-26 19:03 | 49.34141 | 17.32242 | 29284 ft | 458 kts | 95° |
| 2026-04-26 19:04 | 49.33279 | 17.41920 | 29277 ft | 458 kts | 95° |
| 2026-04-26 19:04 | 49.32408 | 17.51612 | 29269 ft | 459 kts | 96° |
| 2026-04-26 19:05 | 49.30486 | 17.65979 | 29280 ft | 461 kts | 107° |
| 2026-04-26 19:06 | 49.28398 | 17.75265 | 29278 ft | 461 kts | 109° |
| 2026-04-26 19:06 | 49.26264 | 17.84508 | 29281 ft | 460 kts | 108° |
| 2026-04-26 19:07 | 49.24172 | 17.93770 | 29255 ft | 460 kts | 108° |
| 2026-04-26 19:07 | 49.22133 | 18.02908 | 29286 ft | 459 kts | 108° |
| 2026-04-26 19:08 | 49.20074 | 18.12135 | 29284 ft | 458 kts | 108° |
| 2026-04-26 19:08 | 49.18005 | 18.21369 | 29294 ft | 459 kts | 108° |
| 2026-04-26 19:09 | 49.15927 | 18.30599 | 29300 ft | 459 kts | 108° |
| 2026-04-26 19:09 | 49.14890 | 18.35186 | 29068 ft | 454 kts | 108° |
| 2026-04-26 19:09 | 49.13864 | 18.39711 | 28790 ft | 447 kts | 108° |
| 2026-04-26 19:09 | 49.13191 | 18.42671 | 28597 ft | 444 kts | 108° |
| 2026-04-26 19:10 | 49.12183 | 18.47105 | 28339 ft | 441 kts | 108° |
| 2026-04-26 19:10 | 49.11176 | 18.51526 | 28076 ft | 440 kts | 108° |
| 2026-04-26 19:10 | 49.10170 | 18.55932 | 27810 ft | 439 kts | 108° |
| 2026-04-26 19:10 | 49.09165 | 18.60328 | 27547 ft | 438 kts | 108° |
| 2026-04-26 19:11 | 49.08161 | 18.64711 | 27263 ft | 435 kts | 108° |
| 2026-04-26 19:11 | 49.07165 | 18.69044 | 26894 ft | 431 kts | 108° |
| 2026-04-26 19:11 | 49.06172 | 18.73356 | 26501 ft | 428 kts | 108° |
| 2026-04-26 19:11 | 49.05201 | 18.77565 | 26119 ft | 425 kts | 108° |
| 2026-04-26 19:12 | 49.04220 | 18.81810 | 25725 ft | 423 kts | 108° |
| 2026-04-26 19:12 | 49.03243 | 18.86031 | 25364 ft | 421 kts | 108° |
| 2026-04-26 19:12 | 49.02270 | 18.90224 | 24965 ft | 419 kts | 108° |
| 2026-04-26 19:12 | 49.01299 | 18.94401 | 24589 ft | 417 kts | 108° |
| 2026-04-26 19:13 | 49.00332 | 18.98556 | 24206 ft | 416 kts | 108° |
| 2026-04-26 19:13 | 48.99391 | 19.02589 | 23811 ft | 415 kts | 108° |
| 2026-04-26 19:13 | 48.98423 | 19.06729 | 23360 ft | 413 kts | 108° |
| 2026-04-26 19:13 | 48.97460 | 19.10839 | 22957 ft | 411 kts | 108° |
| 2026-04-26 19:14 | 48.96502 | 19.14921 | 22540 ft | 408 kts | 108° |
| 2026-04-26 19:14 | 48.95550 | 19.18970 | 22157 ft | 405 kts | 108° |
| 2026-04-26 19:14 | 48.94602 | 19.22990 | 21783 ft | 401 kts | 107° |
| 2026-04-26 19:14 | 48.93979 | 19.25633 | 21542 ft | 400 kts | 107° |
| 2026-04-26 19:15 | 48.92723 | 19.30943 | 21035 ft | 397 kts | 107° |
| 2026-04-26 19:15 | 48.91802 | 19.34832 | 20654 ft | 395 kts | 107° |
| 2026-04-26 19:15 | 48.90871 | 19.38754 | 20263 ft | 393 kts | 107° |
| 2026-04-26 19:15 | 48.89948 | 19.42639 | 19901 ft | 389 kts | 107° |
| 2026-04-26 19:16 | 48.89030 | 19.46489 | 19553 ft | 386 kts | 106° |
| 2026-04-26 19:16 | 48.88118 | 19.50315 | 19193 ft | 385 kts | 106° |
| 2026-04-26 19:16 | 48.87207 | 19.54129 | 18819 ft | 383 kts | 106° |
| 2026-04-26 19:16 | 48.86298 | 19.57931 | 18431 ft | 382 kts | 106° |
| 2026-04-26 19:17 | 48.85390 | 19.61718 | 18013 ft | 381 kts | 106° |
| 2026-04-26 19:17 | 48.84482 | 19.65497 | 17630 ft | 378 kts | 106° |
| 2026-04-26 19:17 | 48.83583 | 19.69235 | 17251 ft | 376 kts | 106° |
| 2026-04-26 19:17 | 48.82690 | 19.72939 | 16881 ft | 373 kts | 106° |
| 2026-04-26 19:18 | 48.81798 | 19.76633 | 16533 ft | 371 kts | 106° |
| 2026-04-26 19:18 | 48.80911 | 19.80303 | 16167 ft | 370 kts | 106° |
| 2026-04-26 19:18 | 48.80036 | 19.83914 | 15809 ft | 368 kts | 107° |
| 2026-04-26 19:18 | 48.79152 | 19.87557 | 15436 ft | 367 kts | 107° |
| 2026-04-26 19:19 | 48.78272 | 19.91181 | 15071 ft | 366 kts | 107° |
| 2026-04-26 19:19 | 48.77394 | 19.94789 | 14729 ft | 364 kts | 107° |
| 2026-04-26 19:19 | 48.76516 | 19.98388 | 14354 ft | 362 kts | 107° |
| 2026-04-26 19:19 | 48.75660 | 20.01889 | 14022 ft | 360 kts | 107° |
| 2026-04-26 19:20 | 48.74795 | 20.05434 | 13623 ft | 356 kts | 107° |
| 2026-04-26 19:20 | 48.74223 | 20.07765 | 13419 ft | 353 kts | 107° |
| 2026-04-26 19:20 | 48.73090 | 20.12366 | 12973 ft | 341 kts | 107° |
| 2026-04-26 19:20 | 48.72282 | 20.15650 | 12702 ft | 327 kts | 107° |
| 2026-04-26 19:21 | 48.71495 | 20.18849 | 12405 ft | 322 kts | 107° |
| 2026-04-26 19:21 | 48.70715 | 20.22015 | 12069 ft | 321 kts | 107° |
| 2026-04-26 19:21 | 48.69931 | 20.25188 | 11696 ft | 322 kts | 107° |
| 2026-04-26 19:21 | 48.69161 | 20.28314 | 11348 ft | 321 kts | 107° |
| 2026-04-26 19:22 | 48.68388 | 20.31440 | 10943 ft | 313 kts | 107° |
| 2026-04-26 19:22 | 48.67630 | 20.34498 | 10588 ft | 309 kts | 107° |
| 2026-04-26 19:22 | 48.66877 | 20.37536 | 10237 ft | 307 kts | 107° |
| 2026-04-26 19:22 | 48.66130 | 20.40550 | 9852 ft | 305 kts | 107° |
| 2026-04-26 19:23 | 48.65385 | 20.43543 | 9451 ft | 304 kts | 107° |
| 2026-04-26 19:23 | 48.64644 | 20.46517 | 9062 ft | 301 kts | 108° |
| 2026-04-26 19:23 | 48.63908 | 20.49465 | 8663 ft | 298 kts | 108° |
| 2026-04-26 19:23 | 48.63192 | 20.52324 | 8520 ft | 280 kts | 108° |
| 2026-04-26 19:24 | 48.62524 | 20.54982 | 8509 ft | 261 kts | 108° |
| 2026-04-26 19:24 | 48.61892 | 20.57504 | 8509 ft | 256 kts | 107° |
| 2026-04-26 19:24 | 48.60636 | 20.62517 | 8506 ft | 253 kts | 107° |
| 2026-04-26 19:25 | 48.60012 | 20.65007 | 8510 ft | 254 kts | 107° |
| 2026-04-26 19:25 | 48.59597 | 20.66663 | 8515 ft | 255 kts | 107° |
| 2026-04-26 19:25 | 48.58753 | 20.70024 | 8530 ft | 256 kts | 107° |
| 2026-04-26 19:25 | 48.58116 | 20.72553 | 8534 ft | 259 kts | 107° |
| 2026-04-26 19:26 | 48.57474 | 20.75098 | 8506 ft | 258 kts | 107° |
| 2026-04-26 19:26 | 48.56838 | 20.77606 | 8317 ft | 252 kts | 107° |
| 2026-04-26 19:26 | 48.56216 | 20.80072 | 7938 ft | 251 kts | 107° |
| 2026-04-26 19:26 | 48.55595 | 20.82524 | 7558 ft | 250 kts | 107° |
| 2026-04-26 19:27 | 48.54977 | 20.84963 | 7198 ft | 248 kts | 107° |
| 2026-04-26 19:27 | 48.54363 | 20.87380 | 6856 ft | 245 kts | 107° |
| 2026-04-26 19:27 | 48.53756 | 20.89770 | 6497 ft | 243 kts | 106° |
| 2026-04-26 19:27 | 48.53155 | 20.92135 | 6132 ft | 240 kts | 106° |
| 2026-04-26 19:28 | 48.52556 | 20.94494 | 6047 ft | 243 kts | 106° |
| 2026-04-26 19:28 | 48.51952 | 20.96866 | 6014 ft | 241 kts | 106° |
| 2026-04-26 19:28 | 48.51361 | 20.99184 | 6004 ft | 238 kts | 106° |
| 2026-04-26 19:28 | 48.50788 | 21.01413 | 5966 ft | 226 kts | 106° |
| 2026-04-26 19:29 | 48.50254 | 21.03573 | 5851 ft | 212 kts | 100° |
| 2026-04-26 19:29 | 48.49917 | 21.05668 | 5678 ft | 202 kts | 96° |
| 2026-04-26 19:29 | 48.49620 | 21.07731 | 5414 ft | 201 kts | 96° |
| 2026-04-26 19:29 | 48.49318 | 21.09786 | 5120 ft | 199 kts | 96° |
| 2026-04-26 19:30 | 48.48991 | 21.11755 | 5000 ft | 191 kts | 104° |
| 2026-04-26 19:30 | 48.48304 | 21.13490 | 4699 ft | 197 kts | 128° |
| 2026-04-26 19:30 | 48.47203 | 21.14756 | 4406 ft | 202 kts | 152° |
| 2026-04-26 19:30 | 48.46328 | 21.15218 | 4247 ft | 201 kts | 168° |
| 2026-04-26 19:31 | 48.44490 | 21.15104 | 4061 ft | 202 kts | 200° |
| 2026-04-26 19:31 | 48.43259 | 21.14141 | 4025 ft | 198 kts | 224° |
| 2026-04-26 19:31 | 48.42384 | 21.12614 | 3993 ft | 188 kts | 249° |
| 2026-04-26 19:31 | 48.42101 | 21.10802 | 4010 ft | 173 kts | 282° |
| 2026-04-26 19:32 | 48.42501 | 21.09174 | 4016 ft | 164 kts | 315° |
| 2026-04-26 19:32 | 48.43403 | 21.08252 | 3981 ft | 156 kts | 347° |
| 2026-04-26 19:32 | 48.44459 | 21.08319 | 3783 ft | 154 kts | 20° |
| 2026-04-26 19:32 | 48.45291 | 21.09336 | 3491 ft | 159 kts | 47° |
| 2026-04-26 19:33 | 48.45969 | 21.10660 | 3178 ft | 161 kts | 46° |
| 2026-04-26 19:33 | 48.46669 | 21.11975 | 2913 ft | 159 kts | 46° |
| 2026-04-26 19:33 | 48.47364 | 21.13278 | 2610 ft | 159 kts | 46° |
| 2026-04-26 19:33 | 48.48070 | 21.14590 | 2597 ft | 165 kts | 46° |
| 2026-04-26 19:34 | 48.48797 | 21.15935 | 2513 ft | 164 kts | 46° |
| 2026-04-26 19:34 | 48.49581 | 21.17139 | 2390 ft | 160 kts | 33° |
| 2026-04-26 19:34 | 48.50551 | 21.17937 | 2247 ft | 161 kts | 22° |
| 2026-04-26 19:34 | 48.51568 | 21.18561 | 2058 ft | 152 kts | 19° |
| 2026-04-26 19:35 | 48.52522 | 21.19070 | 1946 ft | 140 kts | 18° |
| 2026-04-26 19:35 | 48.53372 | 21.19538 | 2036 ft | 117 kts | 17° |
| 2026-04-26 19:35 | 48.54178 | 21.19886 | 2169 ft | 122 kts | 13° |
| 2026-04-26 19:35 | 48.54992 | 21.20185 | 2216 ft | 122 kts | 13° |
| 2026-04-26 19:36 | 48.55830 | 21.20533 | 2296 ft | 129 kts | 15° |
| 2026-04-26 19:36 | 48.56408 | 21.20786 | 2363 ft | 131 kts | 13° |
| 2026-04-26 19:36 | 48.57599 | 21.21201 | 2301 ft | 127 kts | 11° |
| 2026-04-26 19:36 | 48.58437 | 21.21474 | 2085 ft | 121 kts | 11° |
| 2026-04-26 19:37 | 48.59251 | 21.21733 | 1866 ft | 118 kts | 11° |
| 2026-04-26 19:37 | 48.60048 | 21.21997 | 1656 ft | 116 kts | 12° |
| 2026-04-26 19:37 | 48.60875 | 21.22264 | 1485 ft | 127 kts | 13° |
| 2026-04-26 19:37 | 48.61758 | 21.22570 | 1400 ft | 133 kts | 13° |
| 2026-04-26 19:38 | 48.62674 | 21.22868 | 1214 ft | 138 kts | 12° |
| 2026-04-26 19:38 | 48.63607 | 21.23178 | 1034 ft | 137 kts | 13° |
| 2026-04-26 19:38 | 48.64519 | 21.23486 | 839 ft | 131 kts | 13° |
| 2026-04-26 19:38 | 48.65371 | 21.23793 | 753 ft | 112 kts | 13° |
| 2026-04-26 19:39 | 48.65953 | 21.23999 | 755 ft | 69 kts | 13° |
| 2026-04-26 19:39 | 48.66384 | 21.24151 | 756 ft | 58 kts | 13° |
| 2026-04-26 19:39 | 48.66717 | 21.24263 | 763 ft | 23 kts | 10° |
| 2026-04-26 19:39 | 48.66822 | 21.24294 | 764 ft | 15 kts | 11° |
| 2026-04-26 19:40 | 48.66950 | 21.24341 | 765 ft | 22 kts | 14° |
| 2026-04-26 19:40 | 48.67117 | 21.24401 | 764 ft | 25 kts | 11° |
| 2026-04-26 19:40 | 48.67240 | 21.24343 | 759 ft | 20 kts | 281° |
| 2026-04-26 19:40 | 48.67270 | 21.24139 | 762 ft | 19 kts | 286° |
| 2026-04-26 19:41 | 48.67301 | 21.23934 | 764 ft | 13 kts | 284° |
| 2026-04-26 19:41 | 48.67297 | 21.23846 | 765 ft | 6 kts | 206° |
| 2026-04-26 19:41 | 48.67268 | 21.23837 | 765 ft | 2 kts | 188° |
| 2026-04-26 19:41 | 48.67267 | 21.23837 | 765 ft | 0 kts | 188° |